createdAt,value
2022-12-18T00:02:00.565Z,8.22
2022-12-18T00:04:29.084Z,8.20
2022-12-18T00:06:56.544Z,8.01
2022-12-18T00:09:24.047Z,8.11
2022-12-18T00:11:52.436Z,7.85
2022-12-18T00:14:19.992Z,7.99
2022-12-18T00:16:48.189Z,8.00
2022-12-18T00:19:16.515Z,7.86
2022-12-18T00:21:44.990Z,7.90
2022-12-18T00:24:12.772Z,8.00
2022-12-18T00:26:40.904Z,8.06
2022-12-18T00:29:14.874Z,8.07
2022-12-18T00:31:44.935Z,7.84
2022-12-18T00:34:13.891Z,7.85
2022-12-18T00:36:42.239Z,7.75
2022-12-18T00:39:12.406Z,7.51
2022-12-18T00:41:58.778Z,7.58
2022-12-18T00:44:26.624Z,7.50
2022-12-18T00:46:54.112Z,7.56
2022-12-18T00:49:22.062Z,7.45
2022-12-18T00:51:50.562Z,7.65
2022-12-18T00:54:18.803Z,7.59
2022-12-18T00:56:49.302Z,7.32
2022-12-18T00:59:19.309Z,7.39
2022-12-18T01:01:47.815Z,7.52
2022-12-18T01:04:15.849Z,7.54
2022-12-18T01:06:46.475Z,7.50
2022-12-18T01:09:14.446Z,7.18
2022-12-18T01:11:42.187Z,7.19
2022-12-18T01:14:11.169Z,7.42
2022-12-18T01:16:38.577Z,7.23
2022-12-18T01:19:05.910Z,7.18
2022-12-18T01:21:34.020Z,7.03
2022-12-18T01:24:05.161Z,7.17
2022-12-18T01:26:32.558Z,7.16
2022-12-18T01:29:00.234Z,6.99
2022-12-18T01:31:30.453Z,6.89
2022-12-18T01:33:58.656Z,7.01
2022-12-18T01:36:28.965Z,6.94
2022-12-18T01:38:56.896Z,6.94
2022-12-18T01:41:27.503Z,7.13
2022-12-18T01:43:58.619Z,7.08
2022-12-18T01:46:27.177Z,7.05
2022-12-18T01:49:02.454Z,6.98
2022-12-18T01:51:31.662Z,6.71
2022-12-18T01:54:00.802Z,6.71
2022-12-18T01:56:28.375Z,6.53
2022-12-18T01:59:03.788Z,6.55
2022-12-18T02:01:33.695Z,6.44
2022-12-18T02:04:26.574Z,6.29
2022-12-18T02:07:17.403Z,6.39
2022-12-18T02:09:56.176Z,6.23
2022-12-18T02:13:02.859Z,6.33
2022-12-18T02:15:38.127Z,6.23
2022-12-18T02:18:15.643Z,6.33
2022-12-18T02:21:24.652Z,5.99
2022-12-18T02:24:02.611Z,5.99
2022-12-18T02:26:40.330Z,6.03
2022-12-18T02:29:19.055Z,5.94
2022-12-18T02:31:53.715Z,5.99
2022-12-18T02:34:26.167Z,6.01
2022-12-18T02:36:56.508Z,6.10
2022-12-18T02:39:26.928Z,6.21
2022-12-18T02:41:55.723Z,5.98
2022-12-18T02:44:23.387Z,6.04
2022-12-18T02:46:53.934Z,6.23
2022-12-18T02:49:50.362Z,6.31
2022-12-18T02:52:40.165Z,6.27
2022-12-18T02:55:26.873Z,6.21
2022-12-18T03:00:52.693Z,5.93
2022-12-18T03:03:31.277Z,6.18
2022-12-18T03:06:05.799Z,6.19
2022-12-18T03:08:49.190Z,6.04
2022-12-18T03:11:17.067Z,6.00
2022-12-18T03:13:53.917Z,5.89
2022-12-18T03:16:26.096Z,5.78
2022-12-18T03:19:04.606Z,5.76
2022-12-18T03:21:41.939Z,5.92
2022-12-18T03:24:11.991Z,5.85
2022-12-18T03:26:45.104Z,5.79
2022-12-18T03:29:22.923Z,5.75
2022-12-18T03:31:54.916Z,5.57
2022-12-18T03:34:33.698Z,5.55
2022-12-18T03:37:05.004Z,5.48
2022-12-18T03:39:33.400Z,5.64
2022-12-18T03:42:28.585Z,5.74
2022-12-18T03:45:39.515Z,5.84
2022-12-18T03:48:16.416Z,5.67
2022-12-18T03:50:55.240Z,5.86
2022-12-18T03:53:39.740Z,5.75
2022-12-18T03:56:09.793Z,5.57
2022-12-18T03:58:40.047Z,5.50
2022-12-18T04:01:15.279Z,5.74
2022-12-18T04:03:46.250Z,5.42
2022-12-18T04:06:16.652Z,5.33
2022-12-18T04:08:45.863Z,5.22
2022-12-18T04:11:16.292Z,5.33
2022-12-18T04:13:44.763Z,5.49
2022-12-18T04:16:13.594Z,5.15
2022-12-18T04:18:41.374Z,5.27
2022-12-18T04:21:09.403Z,5.23
2022-12-18T04:23:37.313Z,5.04
2022-12-18T04:26:05.075Z,5.16
2022-12-18T04:28:34.129Z,5.04
2022-12-18T04:31:01.574Z,5.04
2022-12-18T04:33:29.200Z,4.97
2022-12-18T04:35:57.426Z,4.89
2022-12-18T04:38:25.720Z,5.02
2022-12-18T04:40:55.213Z,4.88
2022-12-18T04:43:23.422Z,4.99
2022-12-18T04:45:50.673Z,4.85
2022-12-18T04:48:18.167Z,4.79
2022-12-18T04:50:45.850Z,4.87
2022-12-18T04:53:13.110Z,4.76
2022-12-18T04:55:40.379Z,4.60
2022-12-18T04:58:07.974Z,4.72
2022-12-18T05:00:37.333Z,4.68
2022-12-18T05:03:05.615Z,4.70
2022-12-18T05:05:35.410Z,4.57
2022-12-18T05:08:04.351Z,4.51
2022-12-18T05:10:37.972Z,4.67
2022-12-18T05:13:05.796Z,4.59
2022-12-18T05:15:34.845Z,4.56
2022-12-18T05:18:02.839Z,4.46
2022-12-18T05:20:30.498Z,4.38
2022-12-18T05:22:58.268Z,4.48
2022-12-18T05:25:25.782Z,4.42
2022-12-18T05:27:53.091Z,4.44
2022-12-18T05:30:20.778Z,4.47
2022-12-18T05:32:48.091Z,4.33
2022-12-18T05:35:15.360Z,4.43
2022-12-18T05:37:43.648Z,4.46
2022-12-18T05:40:11.646Z,4.58
2022-12-18T05:42:39.712Z,4.52
2022-12-18T05:45:08.968Z,4.55
2022-12-18T05:47:36.244Z,4.40
2022-12-18T05:50:03.695Z,4.43
2022-12-18T05:52:32.174Z,4.35
2022-12-18T05:55:00.605Z,4.24
2022-12-18T05:57:28.069Z,4.30
2022-12-18T05:59:55.750Z,4.29
2022-12-18T06:02:23.237Z,4.33
2022-12-18T06:04:51.259Z,4.46
2022-12-18T06:07:18.779Z,4.26
2022-12-18T06:09:46.986Z,4.36
2022-12-18T06:12:15.440Z,4.34
2022-12-18T06:14:43.965Z,4.35
2022-12-18T06:17:11.284Z,4.28
2022-12-18T06:19:39.215Z,4.47
2022-12-18T06:22:06.553Z,4.31
2022-12-18T06:24:34.356Z,4.31
2022-12-18T06:27:02.020Z,4.39
2022-12-18T06:29:29.348Z,4.39
2022-12-18T06:31:56.683Z,4.26
2022-12-18T06:34:24.465Z,4.35
2022-12-18T06:36:51.730Z,4.28
2022-12-18T06:39:19.113Z,4.31
2022-12-18T06:41:46.775Z,4.18
2022-12-18T06:44:14.101Z,4.37
2022-12-18T06:46:41.577Z,4.20
2022-12-18T06:49:10.741Z,4.20
2022-12-18T06:51:38.468Z,4.12
2022-12-18T06:54:06.048Z,4.08
2022-12-18T06:56:33.701Z,4.13
2022-12-18T06:59:01.727Z,4.19
2022-12-18T07:01:29.228Z,4.17
2022-12-18T07:03:58.192Z,4.26
2022-12-18T07:06:26.622Z,4.17
2022-12-18T07:08:55.260Z,4.17
2022-12-18T07:11:27.553Z,4.19
2022-12-18T07:13:55.573Z,4.24
2022-12-18T07:16:25.734Z,4.41
2022-12-18T07:18:56.343Z,4.26
2022-12-18T07:21:25.483Z,4.34
2022-12-18T07:23:53.098Z,4.45
2022-12-18T07:26:22.014Z,4.39
2022-12-18T07:28:50.442Z,4.38
2022-12-18T07:31:22.059Z,4.36
2022-12-18T07:33:50.421Z,4.44
2022-12-18T07:36:19.844Z,4.50
2022-12-18T07:38:52.693Z,4.71
2022-12-18T07:41:20.829Z,4.72
2022-12-18T07:43:48.626Z,4.62
2022-12-18T07:46:17.550Z,4.57
2022-12-18T07:48:49.413Z,4.84
2022-12-18T07:51:17.934Z,4.73
2022-12-18T07:53:46.321Z,4.83
2022-12-18T07:56:26.996Z,4.89
2022-12-18T07:58:56.560Z,5.12
2022-12-18T08:01:24.111Z,5.07
2022-12-18T08:03:52.468Z,5.14
2022-12-18T08:06:21.830Z,5.00
2022-12-18T08:08:56.537Z,5.16
2022-12-18T08:11:27.054Z,5.23
2022-12-18T08:13:55.201Z,5.02
2022-12-18T08:16:24.622Z,5.11
2022-12-18T08:18:54.384Z,5.03
2022-12-18T08:21:27.478Z,4.62
2022-12-18T08:23:56.604Z,4.44
2022-12-18T08:26:26.114Z,4.55
2022-12-18T08:28:56.386Z,4.54
2022-12-18T08:31:25.220Z,4.63
2022-12-18T08:33:54.723Z,4.34
2022-12-18T08:36:24.124Z,4.35
2022-12-18T08:38:52.408Z,4.33
2022-12-18T08:41:21.676Z,4.45
2022-12-18T08:44:08.350Z,4.46
2022-12-18T08:46:39.418Z,4.31
2022-12-18T08:49:08.136Z,4.24
2022-12-18T08:51:35.962Z,4.47
2022-12-18T08:54:06.509Z,4.44
2022-12-18T08:56:34.516Z,4.41
2022-12-18T08:59:02.447Z,4.19
2022-12-18T09:01:30.212Z,4.46
2022-12-18T09:03:57.924Z,4.44
2022-12-18T09:06:25.521Z,4.26
2022-12-18T09:08:52.935Z,4.28
2022-12-18T09:11:26.716Z,4.39
2022-12-18T09:13:56.492Z,4.23
2022-12-18T09:16:31.652Z,4.27
2022-12-18T09:19:00.950Z,4.11
2022-12-18T09:21:36.948Z,4.29
2022-12-18T09:24:06.992Z,4.24
2022-12-18T09:26:37.003Z,4.36
2022-12-18T09:29:05.317Z,4.59
2022-12-18T09:31:32.747Z,4.49
2022-12-18T09:34:00.152Z,4.40
2022-12-18T09:36:28.440Z,4.40
2022-12-18T09:38:56.261Z,4.40
2022-12-18T09:41:38.871Z,4.61
2022-12-18T09:44:15.663Z,4.64
2022-12-18T09:46:49.925Z,4.53
2022-12-18T09:49:21.111Z,4.47
2022-12-18T09:51:58.032Z,4.47
2022-12-18T09:54:39.540Z,4.43
2022-12-18T09:57:07.030Z,4.45
2022-12-18T09:59:40.928Z,4.48
2022-12-18T10:02:18.648Z,4.48
2022-12-18T10:04:57.928Z,4.51
2022-12-18T10:07:47.607Z,4.54
2022-12-18T10:10:33.321Z,4.62
2022-12-18T10:13:36.753Z,4.66
2022-12-18T10:16:19.117Z,4.64
2022-12-18T10:19:14.551Z,4.57
2022-12-18T10:22:04.295Z,4.62
2022-12-18T10:24:42.535Z,4.73
2022-12-18T10:27:23.834Z,4.73
2022-12-18T10:29:51.449Z,4.82
2022-12-18T10:32:22.394Z,4.84
2022-12-18T10:34:56.709Z,4.69
2022-12-18T10:37:30.104Z,4.49
2022-12-18T10:40:22.317Z,4.31
2022-12-18T10:43:12.956Z,4.25
2022-12-18T10:45:40.933Z,4.19
2022-12-18T10:48:22.943Z,4.07
2022-12-18T10:53:43.953Z,4.04
2022-12-18T10:56:12.080Z,4.09
2022-12-18T10:58:41.099Z,4.17
2022-12-18T11:01:21.327Z,4.31
2022-12-18T11:03:52.512Z,4.42
2022-12-18T11:06:25.640Z,4.17
2022-12-18T11:09:13.286Z,4.18
2022-12-18T11:11:54.753Z,4.06
2022-12-18T11:14:27.284Z,4.21
2022-12-18T11:17:24.343Z,4.08
2022-12-18T11:19:44.570Z,4.20
2022-12-18T11:22:32.490Z,4.06
2022-12-18T11:28:42.715Z,4.22
2022-12-18T11:31:10.363Z,4.21
2022-12-18T11:33:49.494Z,3.94
2022-12-18T11:36:29.745Z,3.81
2022-12-18T11:39:01.922Z,3.87
2022-12-18T11:41:54.607Z,3.78
2022-12-18T11:44:31.088Z,3.71
2022-12-18T11:47:04.924Z,3.79
2022-12-18T11:49:36.887Z,3.74
2022-12-18T11:52:32.498Z,3.90
2022-12-18T11:55:06.258Z,3.91
2022-12-18T11:57:37.736Z,3.77
2022-12-18T12:00:20.852Z,3.95
2022-12-18T12:03:39.952Z,3.85
2022-12-18T12:06:26.299Z,4.06
2022-12-18T12:08:59.573Z,4.23
2022-12-18T12:11:36.433Z,4.38
2022-12-18T12:14:27.648Z,4.26
2022-12-18T12:16:59.738Z,4.12
2022-12-18T12:19:36.867Z,4.18
2022-12-18T12:22:25.911Z,4.09
2022-12-18T12:25:00.030Z,4.03
2022-12-18T12:27:49.543Z,4.06
2022-12-18T12:30:20.591Z,4.00
2022-12-18T12:33:06.004Z,4.17
2022-12-18T12:36:01.728Z,4.12
2022-12-18T12:38:38.344Z,4.11
2022-12-18T12:41:30.995Z,4.10
2022-12-18T12:44:03.894Z,3.84
2022-12-18T12:46:38.369Z,3.83
2022-12-18T12:49:14.671Z,3.87
2022-12-18T12:51:47.034Z,3.88
2022-12-18T12:54:20.783Z,3.90
2022-12-18T12:57:13.089Z,3.94
2022-12-18T13:00:00.412Z,4.07
2022-12-18T13:02:41.409Z,4.04
2022-12-18T13:05:45.589Z,3.77
2022-12-18T13:08:27.484Z,3.84
2022-12-18T13:11:18.827Z,4.01
2022-12-18T13:13:57.257Z,3.88
2022-12-18T13:16:26.968Z,4.11
2022-12-18T13:18:55.656Z,4.04
2022-12-18T13:21:30.174Z,4.02
2022-12-18T13:24:30.799Z,4.17
2022-12-18T13:26:58.304Z,4.14
2022-12-18T13:29:42.300Z,4.17
2022-12-18T13:32:25.203Z,4.25
2022-12-18T13:35:18.712Z,4.11
2022-12-18T13:37:55.256Z,3.90
2022-12-18T13:40:41.682Z,3.99
2022-12-18T13:43:21.347Z,3.94
2022-12-18T13:46:17.031Z,4.03
2022-12-18T13:48:52.396Z,3.91
2022-12-18T13:51:21.485Z,3.90
2022-12-18T13:54:01.814Z,3.95
2022-12-18T13:56:35.355Z,4.07
2022-12-18T13:59:26.432Z,3.84
2022-12-18T14:01:59.999Z,4.00
2022-12-18T14:04:36.243Z,4.00
2022-12-18T14:07:29.646Z,4.02
2022-12-18T14:10:25.962Z,4.12
2022-12-18T14:13:00.994Z,4.09
2022-12-18T14:15:34.939Z,4.13
2022-12-18T14:18:18.163Z,4.24
2022-12-18T14:20:53.219Z,4.08
2022-12-18T14:23:32.986Z,4.30
2022-12-18T14:26:06.029Z,4.33
2022-12-18T14:28:33.923Z,4.15
2022-12-18T14:31:01.769Z,4.24
2022-12-18T14:33:29.224Z,4.28
2022-12-18T14:36:02.581Z,4.40
2022-12-18T14:38:34.601Z,4.44
2022-12-18T14:41:14.013Z,4.39
2022-12-18T14:43:44.419Z,4.36
2022-12-18T14:46:43.860Z,4.40
2022-12-18T14:49:33.622Z,4.52
2022-12-18T14:52:04.837Z,4.38
2022-12-18T14:54:35.325Z,4.17
2022-12-18T14:57:02.659Z,4.22
2022-12-18T14:59:31.693Z,4.40
2022-12-18T15:02:02.323Z,4.45
2022-12-18T15:04:36.430Z,4.48
2022-12-18T15:07:24.374Z,4.36
2022-12-18T15:10:13.575Z,4.09
2022-12-18T15:12:48.127Z,4.17
2022-12-18T15:15:34.326Z,4.14
2022-12-18T15:18:13.542Z,4.15
2022-12-18T15:20:53.144Z,4.26
2022-12-18T15:23:25.578Z,4.18
2022-12-18T15:26:05.059Z,4.05
2022-12-18T15:28:47.609Z,3.92
2022-12-18T15:31:14.977Z,4.01
2022-12-18T15:34:11.015Z,4.11
2022-12-18T15:36:39.117Z,4.08
2022-12-18T15:39:07.141Z,4.12
2022-12-18T15:41:36.531Z,4.09
2022-12-18T15:44:21.289Z,3.98
2022-12-18T15:46:48.988Z,4.18
2022-12-18T15:49:16.321Z,4.01
2022-12-18T15:51:43.885Z,4.07
2022-12-18T15:54:14.536Z,4.07
2022-12-18T15:57:00.338Z,3.98
2022-12-18T15:59:28.312Z,3.97
2022-12-18T16:01:55.759Z,4.13
2022-12-18T16:04:25.792Z,4.04
2022-12-18T16:09:41.099Z,4.12
2022-12-18T16:12:17.470Z,3.83
2022-12-18T16:14:46.729Z,4.02
2022-12-18T16:17:15.484Z,3.72
2022-12-18T16:19:45.561Z,3.74
2022-12-18T16:22:22.809Z,3.81
2022-12-18T16:24:52.206Z,3.85
2022-12-18T16:27:20.458Z,3.74
2022-12-18T16:29:47.936Z,3.91
2022-12-18T16:32:20.618Z,3.92
2022-12-18T16:34:48.458Z,4.09
2022-12-18T16:37:17.215Z,3.70
2022-12-18T16:39:44.740Z,3.85
2022-12-18T16:42:20.487Z,3.68
2022-12-18T16:44:49.466Z,3.68
2022-12-18T16:47:18.248Z,3.85
2022-12-18T16:49:46.535Z,3.71
2022-12-18T16:52:14.542Z,3.78
2022-12-18T16:54:42.233Z,3.63
2022-12-18T16:57:13.839Z,3.70
2022-12-18T16:59:41.515Z,3.46
2022-12-18T17:02:19.160Z,3.48
2022-12-18T17:04:55.319Z,3.43
2022-12-18T17:07:24.461Z,3.65
2022-12-18T17:09:54.383Z,3.53
2022-12-18T17:12:22.203Z,3.47
2022-12-18T17:14:49.926Z,3.50
2022-12-18T17:17:21.309Z,3.48
2022-12-18T17:19:50.968Z,3.30
2022-12-18T17:22:19.132Z,3.35
2022-12-18T17:24:47.648Z,3.19
2022-12-18T17:27:15.303Z,3.34
2022-12-18T17:29:47.427Z,3.27
2022-12-18T17:32:16.226Z,3.17
2022-12-18T17:34:43.964Z,3.20
2022-12-18T17:37:13.558Z,3.24
2022-12-18T17:39:41.017Z,3.34
2022-12-18T17:42:10.628Z,3.25
2022-12-18T17:44:42.664Z,3.02
2022-12-18T17:47:12.359Z,3.08
2022-12-18T17:49:39.724Z,2.97
2022-12-18T17:52:07.277Z,2.95
2022-12-18T17:54:36.233Z,2.82
2022-12-18T17:57:03.774Z,2.98
2022-12-18T17:59:31.269Z,2.87
2022-12-18T18:01:59.141Z,3.00
2022-12-18T18:04:27.263Z,2.74
2022-12-18T18:06:54.540Z,2.69
2022-12-18T18:09:22.061Z,2.86
2022-12-18T18:12:09.065Z,2.72
2022-12-18T18:14:36.989Z,2.82
2022-12-18T18:17:05.685Z,2.60
2022-12-18T18:19:34.319Z,2.77
2022-12-18T18:22:03.148Z,2.86
2022-12-18T18:24:33.364Z,2.81
2022-12-18T18:27:00.763Z,2.86
2022-12-18T18:29:30.640Z,2.96
2022-12-18T18:31:59.053Z,2.99
2022-12-18T18:34:31.792Z,2.90
2022-12-18T18:37:01.843Z,2.84
2022-12-18T18:39:29.814Z,2.80
2022-12-18T18:41:57.311Z,2.81
2022-12-18T18:44:26.149Z,2.92
2022-12-18T18:46:58.363Z,2.95
2022-12-18T18:49:28.475Z,3.01
2022-12-18T18:51:57.164Z,2.89
2022-12-18T18:54:25.859Z,2.74
2022-12-18T18:57:19.337Z,2.86
2022-12-18T18:59:41.518Z,2.87
2022-12-18T19:02:14.515Z,3.08
2022-12-18T19:04:46.572Z,3.13
2022-12-18T19:07:29.970Z,3.17
2022-12-18T19:10:04.399Z,3.00
2022-12-18T19:12:54.320Z,3.10
2022-12-18T19:15:22.496Z,3.22
2022-12-18T19:17:50.308Z,3.00
2022-12-18T19:20:18.584Z,3.03
2022-12-18T19:22:55.148Z,3.01
2022-12-18T19:25:38.535Z,2.86
2022-12-18T19:28:09.503Z,3.00
2022-12-18T19:30:50.956Z,2.91
2022-12-18T19:33:42.011Z,2.95
2022-12-18T19:36:27.179Z,3.17
2022-12-18T19:38:57.405Z,2.98
2022-12-18T19:41:25.686Z,2.80
2022-12-18T19:43:56.365Z,2.80
2022-12-18T19:46:24.337Z,2.73
2022-12-18T19:48:52.716Z,2.85
2022-12-18T19:51:23.613Z,2.88
2022-12-18T19:53:57.781Z,2.92
2022-12-18T19:56:28.993Z,2.96
2022-12-18T19:58:56.470Z,2.82
2022-12-18T20:01:25.796Z,2.71
2022-12-18T20:03:55.968Z,2.77
2022-12-18T20:06:30.901Z,2.80
2022-12-18T20:09:01.497Z,2.65
2022-12-18T20:11:31.227Z,2.59
2022-12-18T20:14:03.143Z,2.69
2022-12-18T20:16:31.163Z,2.49
2022-12-18T20:18:59.352Z,2.41
2022-12-18T20:21:26.859Z,2.32
2022-12-18T20:23:55.916Z,2.48
2022-12-18T20:26:24.951Z,2.47
2022-12-18T20:28:53.005Z,2.40
2022-12-18T20:31:20.568Z,2.40
2022-12-18T20:33:49.963Z,2.23
2022-12-18T20:36:24.719Z,2.22
2022-12-18T20:38:59.246Z,2.32
2022-12-18T20:41:37.446Z,2.04
2022-12-18T20:44:22.774Z,1.94
2022-12-18T20:46:56.908Z,2.14
2022-12-18T20:49:25.767Z,2.05
2022-12-18T20:51:56.369Z,1.95
2022-12-18T20:54:27.086Z,2.09
2022-12-18T20:56:55.268Z,1.88
2022-12-18T20:59:23.394Z,1.89
2022-12-18T21:01:52.416Z,2.00
2022-12-18T21:04:20.095Z,1.97
2022-12-18T21:06:54.227Z,1.96
2022-12-18T21:09:30.358Z,1.90
2022-12-18T21:12:40.542Z,1.91
2022-12-18T21:15:16.257Z,1.91
2022-12-18T21:17:44.534Z,1.93
2022-12-18T21:20:17.362Z,1.77
2022-12-18T21:22:45.919Z,1.69
2022-12-18T21:25:13.291Z,1.87
2022-12-18T21:27:40.641Z,1.97
2022-12-18T21:30:08.985Z,1.72
2022-12-18T21:32:36.372Z,1.66
2022-12-18T21:35:04.004Z,1.70
2022-12-18T21:37:31.692Z,1.74
2022-12-18T21:39:59.115Z,1.56
2022-12-18T21:42:45.061Z,1.57
2022-12-18T21:45:12.837Z,1.33
2022-12-18T21:47:40.238Z,1.41
2022-12-18T21:50:08.020Z,1.41
2022-12-18T21:52:35.813Z,1.39
2022-12-18T21:55:09.573Z,1.27
2022-12-18T21:57:39.596Z,1.51
2022-12-18T22:00:11.587Z,1.58
2022-12-18T22:02:47.301Z,1.28
2022-12-18T22:05:14.921Z,1.36
2022-12-18T22:07:42.291Z,1.25
2022-12-18T22:10:12.322Z,1.07
2022-12-18T22:12:43.988Z,1.19
2022-12-18T22:15:21.036Z,1.20
2022-12-18T22:17:50.105Z,1.12
2022-12-18T22:20:20.064Z,1.20
2022-12-18T22:22:48.805Z,1.13
2022-12-18T22:25:16.293Z,1.03
2022-12-18T22:28:04.926Z,1.10
2022-12-18T22:30:32.223Z,1.21
2022-12-18T22:33:00.504Z,1.03
2022-12-18T22:35:27.897Z,1.08
2022-12-18T22:37:55.336Z,0.99
2022-12-18T22:40:27.369Z,0.88
2022-12-18T22:42:56.152Z,0.79
2022-12-18T22:45:25.434Z,0.70
2022-12-18T22:47:52.906Z,0.79
2022-12-18T22:50:21.126Z,0.61
2022-12-18T22:52:48.882Z,0.60
2022-12-18T22:55:16.228Z,0.74
2022-12-18T22:57:44.430Z,0.73
2022-12-18T23:00:20.120Z,0.86
2022-12-18T23:02:59.236Z,0.72
2022-12-18T23:05:29.178Z,0.78
2022-12-18T23:07:56.593Z,0.73
2022-12-18T23:10:24.825Z,0.68
2022-12-18T23:12:54.456Z,0.53
2022-12-18T23:15:27.707Z,0.59
2022-12-18T23:17:57.510Z,0.63
2022-12-18T23:20:28.162Z,0.73
2022-12-18T23:22:55.837Z,0.93
2022-12-18T23:25:23.385Z,0.87
2022-12-18T23:27:51.242Z,0.96
2022-12-18T23:30:19.014Z,1.02
2022-12-18T23:32:46.420Z,1.03
2022-12-18T23:35:15.899Z,0.97
2022-12-18T23:38:00.543Z,1.27
2022-12-18T23:40:29.634Z,1.12
2022-12-18T23:42:58.673Z,1.16
2022-12-18T23:45:26.156Z,1.29
2022-12-18T23:47:53.510Z,1.03
2022-12-18T23:50:25.437Z,0.99
2022-12-18T23:53:00.708Z,1.00
2022-12-18T23:55:37.508Z,1.00
2022-12-18T23:58:04.848Z,1.09
